Enter the Airport ICAO Code

Search by Airport or City

Current Weather

LELC | Murcia–San Javier Airport

Murcia, Region of Murcia, Spain

Last Update 20 Minutes Ago

Completely Cloudy Sky

Temperature of 14 ºC

Light to Moderate Winds from NorthEast

Temperature

14 ºC

Dew Point Temperature

09 ºC

Relative Humidity

71.95 %

Wind Direction

NorthEast (050º, Ranging from 020º to 080º)

Wind Velocity

17 km/h (09 kt)

Gusts

None

Visibility

Reduced to 9.0 Kilometers

Sea Level Pressure

1026 hPa (Hectopascals)

Layers of Clouds

90% to 100% of Sky Covered from 1006 mts (3300 ft) Above Ground Level.

METAR LELC 270330Z AUTO 05009KT 020V080 9000 OVC033 14/09 Q1026

Weather Forecast

LELC | Murcia–San Javier Airport

Murcia, Region of Murcia, Spain

Forecast valid for the next 20 Hours

From now on it is expected:

Mostly Cloudy Sky

Moderate Winds from NorthEast

Maximum Temperature

17 ºC in 10 Hours

Minimum Temperature

12 ºC in 2 Hours

TAF LELC 262300Z 2700/2724 04011KT 9999 SCT020 BKN030 TX17/2714Z TN12/2706Z